Terminal Aerodrome Forecast
Issued by NWS Greer, SC

Home | Current Version | Previous Version | Text Only | Print | Product List | Glossary On
Versions: 1 2 3 4 5 6 7 8 9 10 11 12 13 14 15 16 17 18 19 20 21 22 23 24 25 26 27
346
FTUS42 KGSP 270520
TAFAVL
TAF
KAVL 270520Z 2706/2806 00000KT P6SM FEW045
      TEMPO 2710/2713 3SM BR
     FM271300 34003KT P6SM FEW060
     FM271800 20005KT P6SM BKN045 PROB30 2718/2724 4SM -TSRA
      OVC025CB
     FM280400 34003KT P6SM SCT050=

USA.gov is the U.S. government's official web portal to all federal, state and local government web resources and services.